sensor_id;sensor_type;location;lat;lon;timestamp;P1;durP1;ratioP1;P2;durP2;ratioP2
69392;SDS011;56582;44.624;20.378;2022-12-15T00:01:51;17.85;;;9.23;;
69392;SDS011;56582;44.624;20.378;2022-12-15T00:04:35;18.07;;;10.17;;
69392;SDS011;56582;44.624;20.378;2022-12-15T00:07:19;16.85;;;9.95;;
69392;SDS011;56582;44.624;20.378;2022-12-15T00:10:03;16.40;;;9.90;;
69392;SDS011;56582;44.624;20.378;2022-12-15T00:12:47;17.58;;;10.45;;
69392;SDS011;56582;44.624;20.378;2022-12-15T00:15:31;17.20;;;10.63;;
69392;SDS011;56582;44.624;20.378;2022-12-15T00:18:14;17.30;;;9.73;;
69392;SDS011;56582;44.624;20.378;2022-12-15T00:20:58;18.17;;;10.82;;
69392;SDS011;56582;44.624;20.378;2022-12-15T00:23:43;15.85;;;9.45;;
69392;SDS011;56582;44.624;20.378;2022-12-15T00:26:27;18.73;;;10.20;;
69392;SDS011;56582;44.624;20.378;2022-12-15T00:29:11;16.65;;;10.35;;
69392;SDS011;56582;44.624;20.378;2022-12-15T00:31:55;17.17;;;9.90;;
69392;SDS011;56582;44.624;20.378;2022-12-15T00:34:39;15.63;;;9.13;;
69392;SDS011;56582;44.624;20.378;2022-12-15T00:37:23;18.23;;;9.70;;
69392;SDS011;56582;44.624;20.378;2022-12-15T00:40:07;17.90;;;10.48;;
69392;SDS011;56582;44.624;20.378;2022-12-15T00:42:33;17.40;;;9.73;;
69392;SDS011;56582;44.624;20.378;2022-12-15T00:44:59;16.20;;;9.68;;
69392;SDS011;56582;44.624;20.378;2022-12-15T00:47:25;15.83;;;10.57;;
69392;SDS011;56582;44.624;20.378;2022-12-15T00:49:51;14.35;;;7.72;;
69392;SDS011;56582;44.624;20.378;2022-12-15T00:52:34;15.20;;;8.47;;
69392;SDS011;56582;44.624;20.378;2022-12-15T00:55:19;15.10;;;9.00;;
69392;SDS011;56582;44.624;20.378;2022-12-15T00:58:03;15.57;;;9.77;;
69392;SDS011;56582;44.624;20.378;2022-12-15T01:00:47;14.25;;;7.47;;
69392;SDS011;56582;44.624;20.378;2022-12-15T01:03:31;15.88;;;9.30;;
69392;SDS011;56582;44.624;20.378;2022-12-15T01:06:16;15.40;;;8.70;;
69392;SDS011;56582;44.624;20.378;2022-12-15T01:09:01;15.93;;;9.35;;
69392;SDS011;56582;44.624;20.378;2022-12-15T01:11:47;14.77;;;7.75;;
69392;SDS011;56582;44.624;20.378;2022-12-15T01:14:31;15.88;;;8.95;;
69392;SDS011;56582;44.624;20.378;2022-12-15T01:17:16;15.25;;;9.82;;
69392;SDS011;56582;44.624;20.378;2022-12-15T01:20:01;17.67;;;8.33;;
69392;SDS011;56582;44.624;20.378;2022-12-15T01:23:03;14.73;;;9.13;;
69392;SDS011;56582;44.624;20.378;2022-12-15T01:25:28;15.85;;;9.43;;
69392;SDS011;56582;44.624;20.378;2022-12-15T01:27:53;15.27;;;8.97;;
69392;SDS011;56582;44.624;20.378;2022-12-15T01:30:20;17.63;;;9.40;;
69392;SDS011;56582;44.624;20.378;2022-12-15T01:32:48;15.33;;;8.60;;
69392;SDS011;56582;44.624;20.378;2022-12-15T01:35:14;14.25;;;9.07;;
69392;SDS011;56582;44.624;20.378;2022-12-15T01:37:40;17.38;;;9.45;;
69392;SDS011;56582;44.624;20.378;2022-12-15T01:40:06;14.73;;;8.77;;
69392;SDS011;56582;44.624;20.378;2022-12-15T01:42:52;15.68;;;8.95;;
69392;SDS011;56582;44.624;20.378;2022-12-15T01:46:03;14.70;;;8.93;;
69392;SDS011;56582;44.624;20.378;2022-12-15T01:48:16;12.45;;;7.80;;
69392;SDS011;56582;44.624;20.378;2022-12-15T01:50:57;15.23;;;8.10;;
69392;SDS011;56582;44.624;20.378;2022-12-15T01:53:27;16.92;;;8.65;;
69392;SDS011;56582;44.624;20.378;2022-12-15T01:55:56;13.80;;;8.55;;
69392;SDS011;56582;44.624;20.378;2022-12-15T01:58:21;12.80;;;7.53;;
69392;SDS011;56582;44.624;20.378;2022-12-15T02:00:47;12.97;;;8.47;;
69392;SDS011;56582;44.624;20.378;2022-12-15T02:03:12;13.00;;;8.63;;
69392;SDS011;56582;44.624;20.378;2022-12-15T02:05:38;15.40;;;8.53;;
69392;SDS011;56582;44.624;20.378;2022-12-15T02:08:05;15.05;;;7.88;;
69392;SDS011;56582;44.624;20.378;2022-12-15T02:15:51;14.47;;;7.10;;
69392;SDS011;56582;44.624;20.378;2022-12-15T02:18:45;11.52;;;7.47;;
69392;SDS011;56582;44.624;20.378;2022-12-15T02:27:52;12.77;;;8.25;;
69392;SDS011;56582;44.624;20.378;2022-12-15T02:38:28;11.35;;;6.93;;
69392;SDS011;56582;44.624;20.378;2022-12-15T02:40:59;14.60;;;8.75;;
69392;SDS011;56582;44.624;20.378;2022-12-15T02:43:25;13.35;;;7.72;;
69392;SDS011;56582;44.624;20.378;2022-12-15T02:46:26;13.52;;;8.77;;
69392;SDS011;56582;44.624;20.378;2022-12-15T02:48:58;14.07;;;7.90;;
69392;SDS011;56582;44.624;20.378;2022-12-15T02:51:30;15.27;;;7.70;;
69392;SDS011;56582;44.624;20.378;2022-12-15T02:54:12;17.27;;;9.43;;
69392;SDS011;56582;44.624;20.378;2022-12-15T03:00:06;11.85;;;6.78;;
69392;SDS011;56582;44.624;20.378;2022-12-15T03:02:35;14.80;;;7.80;;
69392;SDS011;56582;44.624;20.378;2022-12-15T03:05:04;13.95;;;9.32;;
69392;SDS011;56582;44.624;20.378;2022-12-15T03:07:30;13.95;;;9.00;;
69392;SDS011;56582;44.624;20.378;2022-12-15T03:09:56;13.17;;;8.00;;
69392;SDS011;56582;44.624;20.378;2022-12-15T03:12:25;14.48;;;8.63;;
69392;SDS011;56582;44.624;20.378;2022-12-15T03:14:51;13.63;;;8.43;;
69392;SDS011;56582;44.624;20.378;2022-12-15T03:17:17;13.77;;;7.43;;
69392;SDS011;56582;44.624;20.378;2022-12-15T03:19:42;13.35;;;7.78;;
69392;SDS011;56582;44.624;20.378;2022-12-15T03:22:07;15.17;;;7.90;;
69392;SDS011;56582;44.624;20.378;2022-12-15T03:24:33;12.90;;;8.47;;
69392;SDS011;56582;44.624;20.378;2022-12-15T03:26:59;14.47;;;8.37;;
69392;SDS011;56582;44.624;20.378;2022-12-15T03:29:24;12.38;;;8.23;;
69392;SDS011;56582;44.624;20.378;2022-12-15T03:31:49;12.57;;;8.10;;
69392;SDS011;56582;44.624;20.378;2022-12-15T03:34:15;11.80;;;7.60;;
69392;SDS011;56582;44.624;20.378;2022-12-15T03:36:41;14.63;;;8.60;;
69392;SDS011;56582;44.624;20.378;2022-12-15T03:39:06;14.43;;;8.70;;
69392;SDS011;56582;44.624;20.378;2022-12-15T03:41:32;14.43;;;8.57;;
69392;SDS011;56582;44.624;20.378;2022-12-15T03:43:57;12.70;;;7.97;;
69392;SDS011;56582;44.624;20.378;2022-12-15T03:46:23;30.37;;;9.40;;
69392;SDS011;56582;44.624;20.378;2022-12-15T03:48:48;27.50;;;8.40;;
69392;SDS011;56582;44.624;20.378;2022-12-15T03:51:14;157.52;;;12.38;;
69392;SDS011;56582;44.624;20.378;2022-12-15T03:53:40;73.68;;;8.20;;
69392;SDS011;56582;44.624;20.378;2022-12-15T03:56:05;14.97;;;8.57;;
69392;SDS011;56582;44.624;20.378;2022-12-15T03:58:31;19.50;;;7.33;;
69392;SDS011;56582;44.624;20.378;2022-12-15T04:00:56;13.55;;;7.82;;
69392;SDS011;56582;44.624;20.378;2022-12-15T04:03:22;14.37;;;7.97;;
69392;SDS011;56582;44.624;20.378;2022-12-15T04:05:47;11.87;;;8.80;;
69392;SDS011;56582;44.624;20.378;2022-12-15T04:08:13;13.80;;;8.80;;
69392;SDS011;56582;44.624;20.378;2022-12-15T04:10:38;12.43;;;7.73;;
69392;SDS011;56582;44.624;20.378;2022-12-15T04:13:05;12.93;;;8.07;;
69392;SDS011;56582;44.624;20.378;2022-12-15T04:15:34;12.98;;;8.38;;
69392;SDS011;56582;44.624;20.378;2022-12-15T04:18:01;12.80;;;8.02;;
69392;SDS011;56582;44.624;20.378;2022-12-15T04:20:28;14.70;;;7.57;;
69392;SDS011;56582;44.624;20.378;2022-12-15T04:22:53;13.93;;;7.85;;
69392;SDS011;56582;44.624;20.378;2022-12-15T04:25:21;16.02;;;9.13;;
69392;SDS011;56582;44.624;20.378;2022-12-15T04:28:07;13.33;;;7.97;;
69392;SDS011;56582;44.624;20.378;2022-12-15T04:30:57;13.45;;;9.38;;
69392;SDS011;56582;44.624;20.378;2022-12-15T04:33:45;13.95;;;8.27;;
69392;SDS011;56582;44.624;20.378;2022-12-15T04:36:34;13.63;;;8.57;;
69392;SDS011;56582;44.624;20.378;2022-12-15T04:39:18;12.85;;;8.27;;
69392;SDS011;56582;44.624;20.378;2022-12-15T04:42:03;13.73;;;7.33;;
69392;SDS011;56582;44.624;20.378;2022-12-15T04:44:47;15.02;;;9.02;;
69392;SDS011;56582;44.624;20.378;2022-12-15T04:47:33;15.40;;;9.30;;
69392;SDS011;56582;44.624;20.378;2022-12-15T04:50:17;13.05;;;8.30;;
69392;SDS011;56582;44.624;20.378;2022-12-15T04:53:08;16.98;;;9.90;;
69392;SDS011;56582;44.624;20.378;2022-12-15T04:55:53;13.93;;;8.97;;
69392;SDS011;56582;44.624;20.378;2022-12-15T04:58:38;15.38;;;9.77;;
69392;SDS011;56582;44.624;20.378;2022-12-15T05:01:21;17.98;;;10.63;;
69392;SDS011;56582;44.624;20.378;2022-12-15T05:04:05;15.00;;;9.63;;
69392;SDS011;56582;44.624;20.378;2022-12-15T05:06:49;15.70;;;9.63;;
69392;SDS011;56582;44.624;20.378;2022-12-15T05:09:33;14.77;;;8.77;;
69392;SDS011;56582;44.624;20.378;2022-12-15T05:12:17;15.80;;;10.18;;
69392;SDS011;56582;44.624;20.378;2022-12-15T05:15:01;15.23;;;9.10;;
69392;SDS011;56582;44.624;20.378;2022-12-15T05:17:45;15.73;;;9.77;;
69392;SDS011;56582;44.624;20.378;2022-12-15T05:20:29;15.57;;;9.27;;
69392;SDS011;56582;44.624;20.378;2022-12-15T05:23:13;14.43;;;7.90;;
69392;SDS011;56582;44.624;20.378;2022-12-15T05:25:57;15.25;;;8.85;;
69392;SDS011;56582;44.624;20.378;2022-12-15T05:28:41;14.45;;;8.43;;
69392;SDS011;56582;44.624;20.378;2022-12-15T05:31:25;14.65;;;8.40;;
69392;SDS011;56582;44.624;20.378;2022-12-15T05:34:09;14.77;;;9.07;;
69392;SDS011;56582;44.624;20.378;2022-12-15T05:36:35;16.43;;;9.87;;
69392;SDS011;56582;44.624;20.378;2022-12-15T05:39:01;14.93;;;9.53;;
69392;SDS011;56582;44.624;20.378;2022-12-15T05:41:27;16.35;;;11.20;;
69392;SDS011;56582;44.624;20.378;2022-12-15T05:43:53;15.80;;;10.23;;
69392;SDS011;56582;44.624;20.378;2022-12-15T05:46:18;17.37;;;11.13;;
69392;SDS011;56582;44.624;20.378;2022-12-15T05:48:44;14.10;;;8.90;;
69392;SDS011;56582;44.624;20.378;2022-12-15T05:51:10;15.50;;;9.30;;
69392;SDS011;56582;44.624;20.378;2022-12-15T05:53:36;15.25;;;9.70;;
69392;SDS011;56582;44.624;20.378;2022-12-15T05:56:03;16.15;;;9.38;;
69392;SDS011;56582;44.624;20.378;2022-12-15T05:58:31;17.02;;;9.25;;
69392;SDS011;56582;44.624;20.378;2022-12-15T06:01:04;59.90;;;31.57;;
69392;SDS011;56582;44.624;20.378;2022-12-15T06:03:31;86.18;;;51.13;;
69392;SDS011;56582;44.624;20.378;2022-12-15T06:05:58;46.33;;;31.00;;
69392;SDS011;56582;44.624;20.378;2022-12-15T06:08:24;16.07;;;10.50;;
69392;SDS011;56582;44.624;20.378;2022-12-15T06:10:54;17.65;;;10.85;;
69392;SDS011;56582;44.624;20.378;2022-12-15T06:13:20;14.43;;;8.98;;
69392;SDS011;56582;44.624;20.378;2022-12-15T06:18:34;14.90;;;9.70;;
69392;SDS011;56582;44.624;20.378;2022-12-15T06:21:03;15.27;;;9.53;;
69392;SDS011;56582;44.624;20.378;2022-12-15T06:23:34;15.30;;;10.20;;
69392;SDS011;56582;44.624;20.378;2022-12-15T06:28:41;23.60;;;14.80;;
69392;SDS011;56582;44.624;20.378;2022-12-15T06:31:07;21.07;;;14.17;;
69392;SDS011;56582;44.624;20.378;2022-12-15T06:33:34;18.15;;;11.88;;
69392;SDS011;56582;44.624;20.378;2022-12-15T06:36:04;24.92;;;13.88;;
69392;SDS011;56582;44.624;20.378;2022-12-15T06:38:31;20.98;;;12.30;;
69392;SDS011;56582;44.624;20.378;2022-12-15T06:40:58;18.10;;;11.23;;
69392;SDS011;56582;44.624;20.378;2022-12-15T06:43:27;20.10;;;11.40;;
69392;SDS011;56582;44.624;20.378;2022-12-15T06:45:54;22.70;;;13.35;;
69392;SDS011;56582;44.624;20.378;2022-12-15T06:48:20;18.13;;;11.07;;
69392;SDS011;56582;44.624;20.378;2022-12-15T06:50:47;17.13;;;10.83;;
69392;SDS011;56582;44.624;20.378;2022-12-15T06:53:13;20.60;;;13.43;;
69392;SDS011;56582;44.624;20.378;2022-12-15T06:55:39;22.38;;;13.15;;
69392;SDS011;56582;44.624;20.378;2022-12-15T06:58:05;21.13;;;12.40;;
69392;SDS011;56582;44.624;20.378;2022-12-15T07:00:34;18.40;;;11.43;;
69392;SDS011;56582;44.624;20.378;2022-12-15T07:03:01;19.45;;;12.15;;
69392;SDS011;56582;44.624;20.378;2022-12-15T07:05:27;20.45;;;13.00;;
69392;SDS011;56582;44.624;20.378;2022-12-15T07:07:52;30.23;;;17.10;;
69392;SDS011;56582;44.624;20.378;2022-12-15T07:10:18;31.37;;;20.07;;
69392;SDS011;56582;44.624;20.378;2022-12-15T07:12:43;22.83;;;13.50;;
69392;SDS011;56582;44.624;20.378;2022-12-15T07:15:09;28.25;;;16.98;;
69392;SDS011;56582;44.624;20.378;2022-12-15T07:17:35;26.23;;;16.30;;
69392;SDS011;56582;44.624;20.378;2022-12-15T07:20:01;42.33;;;20.20;;
69392;SDS011;56582;44.624;20.378;2022-12-15T07:22:30;36.83;;;19.02;;
69392;SDS011;56582;44.624;20.378;2022-12-15T07:24:56;27.80;;;16.00;;
69392;SDS011;56582;44.624;20.378;2022-12-15T07:27:21;28.57;;;16.27;;
69392;SDS011;56582;44.624;20.378;2022-12-15T07:29:46;25.45;;;14.25;;
69392;SDS011;56582;44.624;20.378;2022-12-15T07:32:12;22.27;;;13.40;;
69392;SDS011;56582;44.624;20.378;2022-12-15T07:34:37;20.87;;;12.40;;
69392;SDS011;56582;44.624;20.378;2022-12-15T07:37:03;20.33;;;13.70;;
69392;SDS011;56582;44.624;20.378;2022-12-15T07:39:28;20.33;;;12.38;;
69392;SDS011;56582;44.624;20.378;2022-12-15T07:41:54;21.67;;;13.87;;
69392;SDS011;56582;44.624;20.378;2022-12-15T07:44:19;22.70;;;13.90;;
69392;SDS011;56582;44.624;20.378;2022-12-15T07:46:45;23.13;;;12.60;;
69392;SDS011;56582;44.624;20.378;2022-12-15T07:49:13;26.53;;;18.10;;
69392;SDS011;56582;44.624;20.378;2022-12-15T07:51:39;32.40;;;23.25;;
69392;SDS011;56582;44.624;20.378;2022-12-15T07:54:05;23.20;;;14.18;;
69392;SDS011;56582;44.624;20.378;2022-12-15T07:56:31;23.83;;;14.43;;
69392;SDS011;56582;44.624;20.378;2022-12-15T07:58:56;29.93;;;20.07;;
69392;SDS011;56582;44.624;20.378;2022-12-15T08:01:22;28.45;;;17.20;;
69392;SDS011;56582;44.624;20.378;2022-12-15T08:03:48;23.85;;;14.80;;
69392;SDS011;56582;44.624;20.378;2022-12-15T08:06:14;49.50;;;31.10;;
69392;SDS011;56582;44.624;20.378;2022-12-15T08:08:40;42.83;;;31.10;;
69392;SDS011;56582;44.624;20.378;2022-12-15T08:11:08;31.20;;;21.67;;
69392;SDS011;56582;44.624;20.378;2022-12-15T08:13:35;23.60;;;15.60;;
69392;SDS011;56582;44.624;20.378;2022-12-15T08:16:01;29.20;;;19.02;;
69392;SDS011;56582;44.624;20.378;2022-12-15T08:18:27;20.10;;;13.10;;
69392;SDS011;56582;44.624;20.378;2022-12-15T08:20:53;24.58;;;16.08;;
69392;SDS011;56582;44.624;20.378;2022-12-15T08:23:18;92.53;;;39.87;;
69392;SDS011;56582;44.624;20.378;2022-12-15T08:25:44;25.33;;;14.35;;
69392;SDS011;56582;44.624;20.378;2022-12-15T08:28:09;15.90;;;10.73;;
69392;SDS011;56582;44.624;20.378;2022-12-15T08:30:35;19.57;;;11.80;;
69392;SDS011;56582;44.624;20.378;2022-12-15T08:33:01;14.90;;;9.95;;
69392;SDS011;56582;44.624;20.378;2022-12-15T08:35:27;16.67;;;11.48;;
69392;SDS011;56582;44.624;20.378;2022-12-15T08:37:53;16.80;;;10.98;;
69392;SDS011;56582;44.624;20.378;2022-12-15T08:40:18;20.27;;;13.00;;
69392;SDS011;56582;44.624;20.378;2022-12-15T08:42:44;24.57;;;14.37;;
69392;SDS011;56582;44.624;20.378;2022-12-15T08:45:10;21.30;;;15.18;;
69392;SDS011;56582;44.624;20.378;2022-12-15T08:47:36;21.53;;;12.70;;
69392;SDS011;56582;44.624;20.378;2022-12-15T08:50:03;19.83;;;11.50;;
69392;SDS011;56582;44.624;20.378;2022-12-15T08:52:30;23.30;;;15.20;;
69392;SDS011;56582;44.624;20.378;2022-12-15T08:54:56;19.53;;;12.47;;
69392;SDS011;56582;44.624;20.378;2022-12-15T08:57:21;16.90;;;11.38;;
69392;SDS011;56582;44.624;20.378;2022-12-15T08:59:47;20.70;;;12.67;;
69392;SDS011;56582;44.624;20.378;2022-12-15T09:02:12;34.17;;;21.97;;
69392;SDS011;56582;44.624;20.378;2022-12-15T09:04:38;27.63;;;17.37;;
69392;SDS011;56582;44.624;20.378;2022-12-15T09:07:04;20.55;;;12.13;;
69392;SDS011;56582;44.624;20.378;2022-12-15T09:09:30;21.05;;;12.98;;
69392;SDS011;56582;44.624;20.378;2022-12-15T09:11:56;16.57;;;10.20;;
69392;SDS011;56582;44.624;20.378;2022-12-15T09:14:21;19.60;;;12.63;;
69392;SDS011;56582;44.624;20.378;2022-12-15T09:16:47;27.00;;;17.85;;
69392;SDS011;56582;44.624;20.378;2022-12-15T09:19:12;16.43;;;12.37;;
69392;SDS011;56582;44.624;20.378;2022-12-15T09:21:38;16.53;;;11.53;;
69392;SDS011;56582;44.624;20.378;2022-12-15T09:24:04;18.35;;;13.40;;
69392;SDS011;56582;44.624;20.378;2022-12-15T09:26:31;19.40;;;12.80;;
69392;SDS011;56582;44.624;20.378;2022-12-15T09:28:58;19.03;;;14.60;;
69392;SDS011;56582;44.624;20.378;2022-12-15T09:31:24;19.05;;;13.20;;
69392;SDS011;56582;44.624;20.378;2022-12-15T09:33:53;18.52;;;12.82;;
69392;SDS011;56582;44.624;20.378;2022-12-15T09:36:20;17.77;;;12.00;;
69392;SDS011;56582;44.624;20.378;2022-12-15T09:38:46;30.27;;;18.20;;
69392;SDS011;56582;44.624;20.378;2022-12-15T09:43:59;20.57;;;13.07;;
69392;SDS011;56582;44.624;20.378;2022-12-15T09:46:32;22.58;;;15.30;;
69392;SDS011;56582;44.624;20.378;2022-12-15T09:49:54;22.75;;;15.23;;
69392;SDS011;56582;44.624;20.378;2022-12-15T09:52:12;22.27;;;14.50;;
69392;SDS011;56582;44.624;20.378;2022-12-15T09:54:41;22.37;;;15.63;;
69392;SDS011;56582;44.624;20.378;2022-12-15T09:57:14;20.73;;;14.40;;
69392;SDS011;56582;44.624;20.378;2022-12-15T10:06:15;22.25;;;13.80;;
69392;SDS011;56582;44.624;20.378;2022-12-15T10:08:44;17.97;;;11.57;;
69392;SDS011;56582;44.624;20.378;2022-12-15T10:11:22;20.13;;;13.23;;
69392;SDS011;56582;44.624;20.378;2022-12-15T10:13:59;17.52;;;11.60;;
69392;SDS011;56582;44.624;20.378;2022-12-15T10:19:18;19.30;;;13.02;;
69392;SDS011;56582;44.624;20.378;2022-12-15T10:21:50;18.77;;;12.87;;
69392;SDS011;56582;44.624;20.378;2022-12-15T10:30:01;18.37;;;12.87;;
69392;SDS011;56582;44.624;20.378;2022-12-15T10:34:55;24.13;;;15.18;;
69392;SDS011;56582;44.624;20.378;2022-12-15T10:37:20;33.67;;;17.57;;
69392;SDS011;56582;44.624;20.378;2022-12-15T10:39:48;16.83;;;10.73;;
69392;SDS011;56582;44.624;20.378;2022-12-15T10:44:45;20.55;;;13.07;;
69392;SDS011;56582;44.624;20.378;2022-12-15T10:47:34;20.87;;;11.90;;
69392;SDS011;56582;44.624;20.378;2022-12-15T10:53:05;24.05;;;15.65;;
69392;SDS011;56582;44.624;20.378;2022-12-15T10:55:55;14.88;;;9.70;;
69392;SDS011;56582;44.624;20.378;2022-12-15T10:58:24;15.10;;;10.27;;
69392;SDS011;56582;44.624;20.378;2022-12-15T11:01:03;15.87;;;11.10;;
69392;SDS011;56582;44.624;20.378;2022-12-15T11:03:38;16.48;;;11.82;;
69392;SDS011;56582;44.624;20.378;2022-12-15T11:06:08;15.57;;;10.50;;
69392;SDS011;56582;44.624;20.378;2022-12-15T11:08:40;15.27;;;10.85;;
69392;SDS011;56582;44.624;20.378;2022-12-15T11:11:08;13.32;;;9.65;;
69392;SDS011;56582;44.624;20.378;2022-12-15T11:14:13;14.80;;;10.43;;
69392;SDS011;56582;44.624;20.378;2022-12-15T11:16:45;14.55;;;9.23;;
69392;SDS011;56582;44.624;20.378;2022-12-15T11:21:54;14.20;;;10.32;;
69392;SDS011;56582;44.624;20.378;2022-12-15T11:24:30;14.63;;;10.00;;
69392;SDS011;56582;44.624;20.378;2022-12-15T11:27:11;15.80;;;9.53;;
69392;SDS011;56582;44.624;20.378;2022-12-15T11:29:58;15.57;;;11.20;;
69392;SDS011;56582;44.624;20.378;2022-12-15T11:32:31;14.57;;;9.50;;
69392;SDS011;56582;44.624;20.378;2022-12-15T11:34:58;12.65;;;9.45;;
69392;SDS011;56582;44.624;20.378;2022-12-15T11:48:11;16.10;;;11.00;;
69392;SDS011;56582;44.624;20.378;2022-12-15T12:00:12;14.13;;;8.57;;
69392;SDS011;56582;44.624;20.378;2022-12-15T12:13:20;17.30;;;10.82;;
69392;SDS011;56582;44.624;20.378;2022-12-15T12:18:30;18.90;;;11.98;;
69392;SDS011;56582;44.624;20.378;2022-12-15T12:21:02;18.70;;;11.88;;
69392;SDS011;56582;44.624;20.378;2022-12-15T12:26:27;18.73;;;12.73;;
69392;SDS011;56582;44.624;20.378;2022-12-15T12:36:50;17.23;;;11.37;;
69392;SDS011;56582;44.624;20.378;2022-12-15T12:39:21;15.82;;;11.05;;
69392;SDS011;56582;44.624;20.378;2022-12-15T12:42:06;17.35;;;11.60;;
69392;SDS011;56582;44.624;20.378;2022-12-15T12:44:38;17.33;;;11.82;;
69392;SDS011;56582;44.624;20.378;2022-12-15T12:49:57;17.45;;;12.15;;
69392;SDS011;56582;44.624;20.378;2022-12-15T12:52:30;17.23;;;12.63;;
69392;SDS011;56582;44.624;20.378;2022-12-15T12:57:39;18.73;;;12.43;;
69392;SDS011;56582;44.624;20.378;2022-12-15T13:00:15;17.73;;;11.73;;
69392;SDS011;56582;44.624;20.378;2022-12-15T13:10:42;15.13;;;11.37;;
69392;SDS011;56582;44.624;20.378;2022-12-15T13:16:07;16.00;;;10.90;;
69392;SDS011;56582;44.624;20.378;2022-12-15T13:27:21;13.85;;;10.07;;
69392;SDS011;56582;44.624;20.378;2022-12-15T13:30:01;14.57;;;9.85;;
69392;SDS011;56582;44.624;20.378;2022-12-15T13:32:40;14.07;;;9.98;;
69392;SDS011;56582;44.624;20.378;2022-12-15T13:37:53;11.17;;;8.07;;
69392;SDS011;56582;44.624;20.378;2022-12-15T13:40:23;32.67;;;17.00;;
69392;SDS011;56582;44.624;20.378;2022-12-15T13:43:01;16.60;;;9.65;;
69392;SDS011;56582;44.624;20.378;2022-12-15T13:48:06;24.02;;;14.25;;
69392;SDS011;56582;44.624;20.378;2022-12-15T13:51:00;18.47;;;10.47;;
69392;SDS011;56582;44.624;20.378;2022-12-15T13:53:27;13.70;;;9.02;;
69392;SDS011;56582;44.624;20.378;2022-12-15T13:56:00;14.82;;;9.60;;
69392;SDS011;56582;44.624;20.378;2022-12-15T13:58:31;27.90;;;17.33;;
69392;SDS011;56582;44.624;20.378;2022-12-15T14:01:15;45.72;;;27.02;;
69392;SDS011;56582;44.624;20.378;2022-12-15T14:04:01;36.40;;;22.17;;
69392;SDS011;56582;44.624;20.378;2022-12-15T14:06:36;34.33;;;22.73;;
69392;SDS011;56582;44.624;20.378;2022-12-15T14:09:10;39.88;;;23.65;;
69392;SDS011;56582;44.624;20.378;2022-12-15T14:11:38;41.25;;;23.77;;
69392;SDS011;56582;44.624;20.378;2022-12-15T14:14:08;34.15;;;20.55;;
69392;SDS011;56582;44.624;20.378;2022-12-15T14:16:41;62.07;;;32.37;;
69392;SDS011;56582;44.624;20.378;2022-12-15T14:19:14;36.58;;;19.42;;
69392;SDS011;56582;44.624;20.378;2022-12-15T14:21:48;81.82;;;33.40;;
69392;SDS011;56582;44.624;20.378;2022-12-15T14:24:22;24.15;;;14.82;;
69392;SDS011;56582;44.624;20.378;2022-12-15T14:26:52;65.95;;;30.83;;
69392;SDS011;56582;44.624;20.378;2022-12-15T14:29:18;24.40;;;15.13;;
69392;SDS011;56582;44.624;20.378;2022-12-15T14:31:45;17.00;;;12.23;;
69392;SDS011;56582;44.624;20.378;2022-12-15T14:34:15;23.10;;;15.68;;
69392;SDS011;56582;44.624;20.378;2022-12-15T14:36:47;19.92;;;14.55;;
69392;SDS011;56582;44.624;20.378;2022-12-15T14:41:53;50.15;;;30.23;;
69392;SDS011;56582;44.624;20.378;2022-12-15T14:46:57;49.70;;;29.65;;
69392;SDS011;56582;44.624;20.378;2022-12-15T14:49:26;48.60;;;30.77;;
69392;SDS011;56582;44.624;20.378;2022-12-15T14:51:59;48.92;;;28.58;;
69392;SDS011;56582;44.624;20.378;2022-12-15T14:57:13;24.37;;;16.67;;
69392;SDS011;56582;44.624;20.378;2022-12-15T14:59:42;20.30;;;14.38;;
69392;SDS011;56582;44.624;20.378;2022-12-15T15:02:23;25.58;;;15.88;;
69392;SDS011;56582;44.624;20.378;2022-12-15T15:07:32;26.30;;;16.42;;
69392;SDS011;56582;44.624;20.378;2022-12-15T15:09:59;177.90;;;88.30;;
69392;SDS011;56582;44.624;20.378;2022-12-15T15:12:48;95.13;;;51.45;;
69392;SDS011;56582;44.624;20.378;2022-12-15T15:15:14;30.92;;;19.02;;
69392;SDS011;56582;44.624;20.378;2022-12-15T15:20:20;35.22;;;20.40;;
69392;SDS011;56582;44.624;20.378;2022-12-15T15:25:36;88.85;;;42.53;;
69392;SDS011;56582;44.624;20.378;2022-12-15T15:30:41;51.63;;;25.90;;
69392;SDS011;56582;44.624;20.378;2022-12-15T15:33:07;74.72;;;37.75;;
69392;SDS011;56582;44.624;20.378;2022-12-15T15:35:34;33.53;;;19.97;;
69392;SDS011;56582;44.624;20.378;2022-12-15T15:38:03;39.28;;;20.83;;
69392;SDS011;56582;44.624;20.378;2022-12-15T15:40:35;62.90;;;30.33;;
69392;SDS011;56582;44.624;20.378;2022-12-15T15:43:00;44.73;;;23.67;;
69392;SDS011;56582;44.624;20.378;2022-12-15T15:45:26;73.85;;;32.45;;
69392;SDS011;56582;44.624;20.378;2022-12-15T15:47:51;26.30;;;15.50;;
69392;SDS011;56582;44.624;20.378;2022-12-15T15:50:20;22.88;;;14.68;;
69392;SDS011;56582;44.624;20.378;2022-12-15T15:52:49;25.73;;;15.90;;
69392;SDS011;56582;44.624;20.378;2022-12-15T15:55:17;25.90;;;15.70;;
69392;SDS011;56582;44.624;20.378;2022-12-15T15:57:49;27.67;;;18.00;;
69392;SDS011;56582;44.624;20.378;2022-12-15T16:00:16;28.07;;;16.40;;
69392;SDS011;56582;44.624;20.378;2022-12-15T16:02:44;26.23;;;16.17;;
69392;SDS011;56582;44.624;20.378;2022-12-15T16:05:09;27.57;;;17.73;;
69392;SDS011;56582;44.624;20.378;2022-12-15T16:07:34;27.77;;;19.17;;
69392;SDS011;56582;44.624;20.378;2022-12-15T16:10:01;31.52;;;19.60;;
69392;SDS011;56582;44.624;20.378;2022-12-15T16:12:27;38.23;;;23.03;;
69392;SDS011;56582;44.624;20.378;2022-12-15T16:14:57;41.50;;;27.05;;
69392;SDS011;56582;44.624;20.378;2022-12-15T16:17:22;41.77;;;28.57;;
69392;SDS011;56582;44.624;20.378;2022-12-15T16:19:49;45.90;;;30.45;;
69392;SDS011;56582;44.624;20.378;2022-12-15T16:22:18;45.57;;;29.73;;
69392;SDS011;56582;44.624;20.378;2022-12-15T16:24:45;42.75;;;27.60;;
69392;SDS011;56582;44.624;20.378;2022-12-15T16:27:11;42.88;;;26.95;;
69392;SDS011;56582;44.624;20.378;2022-12-15T16:29:38;44.17;;;28.30;;
69392;SDS011;56582;44.624;20.378;2022-12-15T16:32:04;46.83;;;28.60;;
69392;SDS011;56582;44.624;20.378;2022-12-15T16:34:30;59.92;;;34.75;;
69392;SDS011;56582;44.624;20.378;2022-12-15T16:36:56;58.40;;;34.30;;
69392;SDS011;56582;44.624;20.378;2022-12-15T16:39:23;62.17;;;33.03;;
69392;SDS011;56582;44.624;20.378;2022-12-15T16:41:51;63.60;;;31.92;;
69392;SDS011;56582;44.624;20.378;2022-12-15T16:44:17;67.15;;;31.75;;
69392;SDS011;56582;44.624;20.378;2022-12-15T16:46:43;53.23;;;27.70;;
69392;SDS011;56582;44.624;20.378;2022-12-15T16:49:10;48.08;;;26.38;;
69392;SDS011;56582;44.624;20.378;2022-12-15T16:51:39;51.47;;;27.53;;
69392;SDS011;56582;44.624;20.378;2022-12-15T16:54:08;43.47;;;25.80;;
69392;SDS011;56582;44.624;20.378;2022-12-15T16:56:40;88.28;;;42.55;;
69392;SDS011;56582;44.624;20.378;2022-12-15T16:59:09;63.90;;;33.90;;
69392;SDS011;56582;44.624;20.378;2022-12-15T17:01:40;53.93;;;29.63;;
69392;SDS011;56582;44.624;20.378;2022-12-15T17:04:06;51.33;;;28.95;;
69392;SDS011;56582;44.624;20.378;2022-12-15T17:06:31;61.37;;;37.67;;
69392;SDS011;56582;44.624;20.378;2022-12-15T17:08:57;61.40;;;37.42;;